sensor_id;sensor_type;location;lat;lon;timestamp;P1;durP1;ratioP1;P2;durP2;ratioP2
63046;SDS011;62025;39.238;9.126;2022-12-24T00:00:28;8.63;;;2.50;;
63046;SDS011;62025;39.238;9.126;2022-12-24T00:02:54;5.82;;;2.08;;
63046;SDS011;62025;39.238;9.126;2022-12-24T00:05:20;7.80;;;2.10;;
63046;SDS011;62025;39.238;9.126;2022-12-24T00:07:46;5.63;;;1.90;;
63046;SDS011;62025;39.238;9.126;2022-12-24T00:10:12;6.53;;;2.50;;
63046;SDS011;62025;39.238;9.126;2022-12-24T00:12:38;12.00;;;2.40;;
63046;SDS011;62025;39.238;9.126;2022-12-24T00:15:05;14.73;;;2.03;;
63046;SDS011;62025;39.238;9.126;2022-12-24T00:17:32;9.07;;;2.25;;
63046;SDS011;62025;39.238;9.126;2022-12-24T00:19:58;6.93;;;2.03;;
63046;SDS011;62025;39.238;9.126;2022-12-24T00:22:24;6.60;;;1.88;;
63046;SDS011;62025;39.238;9.126;2022-12-24T00:24:50;7.82;;;2.13;;
63046;SDS011;62025;39.238;9.126;2022-12-24T00:27:16;10.30;;;2.30;;
63046;SDS011;62025;39.238;9.126;2022-12-24T00:29:42;7.00;;;2.00;;
63046;SDS011;62025;39.238;9.126;2022-12-24T00:32:08;6.25;;;1.95;;
63046;SDS011;62025;39.238;9.126;2022-12-24T00:34:37;8.30;;;2.30;;
63046;SDS011;62025;39.238;9.126;2022-12-24T00:37:04;5.25;;;2.25;;
63046;SDS011;62025;39.238;9.126;2022-12-24T00:39:31;9.40;;;2.40;;
63046;SDS011;62025;39.238;9.126;2022-12-24T00:41:57;9.10;;;2.20;;
63046;SDS011;62025;39.238;9.126;2022-12-24T00:44:23;7.28;;;2.33;;
63046;SDS011;62025;39.238;9.126;2022-12-24T00:46:49;7.07;;;1.85;;
63046;SDS011;62025;39.238;9.126;2022-12-24T00:49:16;9.80;;;2.45;;
63046;SDS011;62025;39.238;9.126;2022-12-24T00:51:42;4.35;;;2.10;;
63046;SDS011;62025;39.238;9.126;2022-12-24T00:54:08;6.70;;;2.00;;
63046;SDS011;62025;39.238;9.126;2022-12-24T00:56:34;9.98;;;2.10;;
63046;SDS011;62025;39.238;9.126;2022-12-24T00:59:00;11.38;;;2.67;;
63046;SDS011;62025;39.238;9.126;2022-12-24T01:01:26;7.25;;;2.10;;
63046;SDS011;62025;39.238;9.126;2022-12-24T01:03:52;8.02;;;2.00;;
63046;SDS011;62025;39.238;9.126;2022-12-24T01:06:38;7.53;;;1.90;;
63046;SDS011;62025;39.238;9.126;2022-12-24T01:09:04;7.55;;;2.08;;
63046;SDS011;62025;39.238;9.126;2022-12-24T01:11:30;12.63;;;2.33;;
63046;SDS011;62025;39.238;9.126;2022-12-24T01:13:56;7.55;;;2.15;;
63046;SDS011;62025;39.238;9.126;2022-12-24T01:16:22;8.63;;;2.28;;
63046;SDS011;62025;39.238;9.126;2022-12-24T01:18:48;8.35;;;2.33;;
63046;SDS011;62025;39.238;9.126;2022-12-24T01:21:14;6.88;;;2.42;;
63046;SDS011;62025;39.238;9.126;2022-12-24T01:23:41;7.22;;;2.50;;
63046;SDS011;62025;39.238;9.126;2022-12-24T01:26:07;10.05;;;3.03;;
63046;SDS011;62025;39.238;9.126;2022-12-24T01:28:36;6.47;;;2.13;;
63046;SDS011;62025;39.238;9.126;2022-12-24T01:31:08;6.47;;;2.20;;
63046;SDS011;62025;39.238;9.126;2022-12-24T01:33:37;10.80;;;2.38;;
63046;SDS011;62025;39.238;9.126;2022-12-24T01:36:02;7.55;;;2.30;;
63046;SDS011;62025;39.238;9.126;2022-12-24T01:38:29;5.82;;;1.80;;
63046;SDS011;62025;39.238;9.126;2022-12-24T01:40:55;7.00;;;2.20;;
63046;SDS011;62025;39.238;9.126;2022-12-24T01:43:39;10.05;;;1.90;;
63046;SDS011;62025;39.238;9.126;2022-12-24T01:46:15;10.63;;;2.58;;
63046;SDS011;62025;39.238;9.126;2022-12-24T01:48:56;6.40;;;2.20;;
63046;SDS011;62025;39.238;9.126;2022-12-24T01:51:36;6.88;;;2.00;;
63046;SDS011;62025;39.238;9.126;2022-12-24T01:54:22;10.27;;;2.10;;
63046;SDS011;62025;39.238;9.126;2022-12-24T01:56:59;8.07;;;2.10;;
63046;SDS011;62025;39.238;9.126;2022-12-24T01:59:32;9.07;;;2.08;;
63046;SDS011;62025;39.238;9.126;2022-12-24T02:02:00;10.23;;;2.75;;
63046;SDS011;62025;39.238;9.126;2022-12-24T02:04:42;9.77;;;2.35;;
63046;SDS011;62025;39.238;9.126;2022-12-24T02:07:34;10.70;;;2.45;;
63046;SDS011;62025;39.238;9.126;2022-12-24T02:10:02;8.27;;;1.85;;
63046;SDS011;62025;39.238;9.126;2022-12-24T02:12:31;12.35;;;2.20;;
63046;SDS011;62025;39.238;9.126;2022-12-24T02:15:00;6.72;;;1.80;;
63046;SDS011;62025;39.238;9.126;2022-12-24T02:20:16;10.93;;;2.45;;
63046;SDS011;62025;39.238;9.126;2022-12-24T02:31:58;10.43;;;2.50;;
63046;SDS011;62025;39.238;9.126;2022-12-24T02:34:32;8.45;;;2.28;;
63046;SDS011;62025;39.238;9.126;2022-12-24T02:40:26;12.27;;;3.28;;
63046;SDS011;62025;39.238;9.126;2022-12-24T02:42:57;13.75;;;3.45;;
63046;SDS011;62025;39.238;9.126;2022-12-24T02:45:29;6.78;;;2.35;;
63046;SDS011;62025;39.238;9.126;2022-12-24T02:47:58;8.52;;;2.42;;
63046;SDS011;62025;39.238;9.126;2022-12-24T02:50:25;8.70;;;2.85;;
63046;SDS011;62025;39.238;9.126;2022-12-24T02:52:52;7.93;;;2.75;;
63046;SDS011;62025;39.238;9.126;2022-12-24T03:01:16;12.27;;;2.53;;
63046;SDS011;62025;39.238;9.126;2022-12-24T03:03:48;11.60;;;3.00;;
63046;SDS011;62025;39.238;9.126;2022-12-24T03:06:59;11.13;;;2.80;;
63046;SDS011;62025;39.238;9.126;2022-12-24T03:09:49;10.07;;;3.25;;
63046;SDS011;62025;39.238;9.126;2022-12-24T03:12:35;10.70;;;2.40;;
63046;SDS011;62025;39.238;9.126;2022-12-24T03:15:16;11.57;;;2.42;;
63046;SDS011;62025;39.238;9.126;2022-12-24T03:17:46;10.30;;;2.28;;
63046;SDS011;62025;39.238;9.126;2022-12-24T03:20:17;11.98;;;2.65;;
63046;SDS011;62025;39.238;9.126;2022-12-24T03:22:49;12.10;;;2.35;;
63046;SDS011;62025;39.238;9.126;2022-12-24T03:25:15;9.60;;;2.40;;
63046;SDS011;62025;39.238;9.126;2022-12-24T03:27:42;10.38;;;2.50;;
63046;SDS011;62025;39.238;9.126;2022-12-24T03:30:12;8.70;;;2.38;;
63046;SDS011;62025;39.238;9.126;2022-12-24T03:32:39;8.35;;;2.50;;
63046;SDS011;62025;39.238;9.126;2022-12-24T03:35:06;13.13;;;2.80;;
63046;SDS011;62025;39.238;9.126;2022-12-24T03:37:33;8.80;;;2.55;;
63046;SDS011;62025;39.238;9.126;2022-12-24T03:39:59;8.73;;;2.40;;
63046;SDS011;62025;39.238;9.126;2022-12-24T03:42:25;8.70;;;2.60;;
63046;SDS011;62025;39.238;9.126;2022-12-24T03:44:50;10.75;;;2.65;;
63046;SDS011;62025;39.238;9.126;2022-12-24T03:47:16;10.80;;;2.25;;
63046;SDS011;62025;39.238;9.126;2022-12-24T03:49:42;11.93;;;3.13;;
63046;SDS011;62025;39.238;9.126;2022-12-24T03:52:08;9.55;;;2.53;;
63046;SDS011;62025;39.238;9.126;2022-12-24T03:54:34;9.20;;;2.42;;
63046;SDS011;62025;39.238;9.126;2022-12-24T03:57:00;10.52;;;3.10;;
63046;SDS011;62025;39.238;9.126;2022-12-24T03:59:26;8.23;;;2.50;;
63046;SDS011;62025;39.238;9.126;2022-12-24T04:01:52;7.03;;;2.50;;
63046;SDS011;62025;39.238;9.126;2022-12-24T04:04:18;14.25;;;2.53;;
63046;SDS011;62025;39.238;9.126;2022-12-24T04:06:44;8.18;;;2.60;;
63046;SDS011;62025;39.238;9.126;2022-12-24T04:09:09;10.45;;;2.80;;
63046;SDS011;62025;39.238;9.126;2022-12-24T04:11:35;8.82;;;2.67;;
63046;SDS011;62025;39.238;9.126;2022-12-24T04:14:01;14.05;;;3.10;;
63046;SDS011;62025;39.238;9.126;2022-12-24T04:16:27;12.43;;;2.83;;
63046;SDS011;62025;39.238;9.126;2022-12-24T04:18:53;13.30;;;2.58;;
63046;SDS011;62025;39.238;9.126;2022-12-24T04:21:19;9.35;;;2.67;;
63046;SDS011;62025;39.238;9.126;2022-12-24T04:23:45;7.28;;;2.42;;
63046;SDS011;62025;39.238;9.126;2022-12-24T04:26:12;5.55;;;2.53;;
63046;SDS011;62025;39.238;9.126;2022-12-24T04:28:39;9.35;;;2.55;;
63046;SDS011;62025;39.238;9.126;2022-12-24T04:31:08;11.53;;;2.77;;
63046;SDS011;62025;39.238;9.126;2022-12-24T04:33:39;9.48;;;2.47;;
63046;SDS011;62025;39.238;9.126;2022-12-24T04:36:06;11.95;;;2.75;;
63046;SDS011;62025;39.238;9.126;2022-12-24T04:38:33;8.80;;;2.58;;
63046;SDS011;62025;39.238;9.126;2022-12-24T04:41:03;8.32;;;3.15;;
63046;SDS011;62025;39.238;9.126;2022-12-24T04:43:37;9.85;;;2.78;;
63046;SDS011;62025;39.238;9.126;2022-12-24T04:46:04;10.32;;;2.50;;
63046;SDS011;62025;39.238;9.126;2022-12-24T04:48:36;13.95;;;2.92;;
63046;SDS011;62025;39.238;9.126;2022-12-24T04:51:03;10.18;;;2.75;;
63046;SDS011;62025;39.238;9.126;2022-12-24T04:53:30;12.07;;;2.60;;
63046;SDS011;62025;39.238;9.126;2022-12-24T04:55:57;12.02;;;2.60;;
63046;SDS011;62025;39.238;9.126;2022-12-24T04:58:23;9.88;;;2.53;;
63046;SDS011;62025;39.238;9.126;2022-12-24T05:00:49;13.60;;;3.00;;
63046;SDS011;62025;39.238;9.126;2022-12-24T05:03:15;10.23;;;2.78;;
63046;SDS011;62025;39.238;9.126;2022-12-24T05:05:41;8.25;;;2.80;;
63046;SDS011;62025;39.238;9.126;2022-12-24T05:08:07;11.98;;;2.95;;
63046;SDS011;62025;39.238;9.126;2022-12-24T05:10:33;23.70;;;3.83;;
63046;SDS011;62025;39.238;9.126;2022-12-24T05:12:59;12.27;;;3.58;;
63046;SDS011;62025;39.238;9.126;2022-12-24T05:15:25;11.00;;;3.03;;
63046;SDS011;62025;39.238;9.126;2022-12-24T05:17:51;13.73;;;3.00;;
63046;SDS011;62025;39.238;9.126;2022-12-24T05:20:17;14.90;;;3.08;;
63046;SDS011;62025;39.238;9.126;2022-12-24T05:22:43;13.77;;;3.60;;
63046;SDS011;62025;39.238;9.126;2022-12-24T05:25:29;10.02;;;3.08;;
63046;SDS011;62025;39.238;9.126;2022-12-24T05:28:19;15.88;;;3.55;;
63046;SDS011;62025;39.238;9.126;2022-12-24T05:30:46;13.13;;;3.67;;
63046;SDS011;62025;39.238;9.126;2022-12-24T05:33:11;13.98;;;3.10;;
63046;SDS011;62025;39.238;9.126;2022-12-24T05:35:38;14.48;;;3.00;;
63046;SDS011;62025;39.238;9.126;2022-12-24T05:38:03;14.20;;;2.88;;
63046;SDS011;62025;39.238;9.126;2022-12-24T05:40:29;15.35;;;3.40;;
63046;SDS011;62025;39.238;9.126;2022-12-24T05:42:55;13.52;;;3.13;;
63046;SDS011;62025;39.238;9.126;2022-12-24T05:45:21;12.23;;;3.30;;
63046;SDS011;62025;39.238;9.126;2022-12-24T05:47:47;10.45;;;3.35;;
63046;SDS011;62025;39.238;9.126;2022-12-24T05:50:13;13.05;;;4.30;;
63046;SDS011;62025;39.238;9.126;2022-12-24T05:52:39;11.25;;;3.20;;
63046;SDS011;62025;39.238;9.126;2022-12-24T05:55:05;14.43;;;3.72;;
63046;SDS011;62025;39.238;9.126;2022-12-24T05:57:33;15.02;;;3.30;;
63046;SDS011;62025;39.238;9.126;2022-12-24T05:59:59;13.93;;;3.35;;
63046;SDS011;62025;39.238;9.126;2022-12-24T06:02:25;18.50;;;3.83;;
63046;SDS011;62025;39.238;9.126;2022-12-24T06:04:50;9.80;;;2.80;;
63046;SDS011;62025;39.238;9.126;2022-12-24T06:07:16;16.30;;;3.38;;
63046;SDS011;62025;39.238;9.126;2022-12-24T06:09:42;11.57;;;3.42;;
63046;SDS011;62025;39.238;9.126;2022-12-24T06:12:08;14.02;;;3.42;;
63046;SDS011;62025;39.238;9.126;2022-12-24T06:14:34;16.40;;;3.13;;
63046;SDS011;62025;39.238;9.126;2022-12-24T06:17:00;9.63;;;2.85;;
63046;SDS011;62025;39.238;9.126;2022-12-24T06:19:26;16.23;;;3.22;;
63046;SDS011;62025;39.238;9.126;2022-12-24T06:21:52;9.02;;;2.80;;
63046;SDS011;62025;39.238;9.126;2022-12-24T06:24:18;11.82;;;2.60;;
63046;SDS011;62025;39.238;9.126;2022-12-24T06:26:44;12.48;;;3.67;;
63046;SDS011;62025;39.238;9.126;2022-12-24T06:29:10;11.82;;;3.42;;
63046;SDS011;62025;39.238;9.126;2022-12-24T06:31:36;11.00;;;3.25;;
63046;SDS011;62025;39.238;9.126;2022-12-24T06:34:02;9.50;;;3.10;;
63046;SDS011;62025;39.238;9.126;2022-12-24T06:36:28;15.57;;;3.33;;
63046;SDS011;62025;39.238;9.126;2022-12-24T06:38:54;12.65;;;2.60;;
63046;SDS011;62025;39.238;9.126;2022-12-24T06:41:20;13.32;;;3.13;;
63046;SDS011;62025;39.238;9.126;2022-12-24T06:43:47;10.18;;;2.97;;
63046;SDS011;62025;39.238;9.126;2022-12-24T06:48:42;15.07;;;3.33;;
63046;SDS011;62025;39.238;9.126;2022-12-24T06:51:09;16.90;;;3.53;;
63046;SDS011;62025;39.238;9.126;2022-12-24T06:53:37;13.95;;;3.20;;
63046;SDS011;62025;39.238;9.126;2022-12-24T06:56:04;8.70;;;3.05;;
63046;SDS011;62025;39.238;9.126;2022-12-24T06:58:34;16.63;;;3.67;;
63046;SDS011;62025;39.238;9.126;2022-12-24T07:01:01;18.85;;;4.65;;
63046;SDS011;62025;39.238;9.126;2022-12-24T07:03:29;13.15;;;3.35;;
63046;SDS011;62025;39.238;9.126;2022-12-24T07:05:56;14.02;;;3.35;;
63046;SDS011;62025;39.238;9.126;2022-12-24T07:08:22;12.02;;;3.15;;
63046;SDS011;62025;39.238;9.126;2022-12-24T07:10:49;12.80;;;3.22;;
63046;SDS011;62025;39.238;9.126;2022-12-24T07:13:16;16.23;;;3.40;;
63046;SDS011;62025;39.238;9.126;2022-12-24T07:15:43;12.05;;;2.97;;
63046;SDS011;62025;39.238;9.126;2022-12-24T07:18:10;13.68;;;3.72;;
63046;SDS011;62025;39.238;9.126;2022-12-24T07:20:37;16.20;;;3.80;;
63046;SDS011;62025;39.238;9.126;2022-12-24T07:23:03;12.93;;;3.63;;
63046;SDS011;62025;39.238;9.126;2022-12-24T07:25:29;16.65;;;3.20;;
63046;SDS011;62025;39.238;9.126;2022-12-24T07:27:55;13.90;;;3.42;;
63046;SDS011;62025;39.238;9.126;2022-12-24T07:30:21;17.75;;;3.67;;
63046;SDS011;62025;39.238;9.126;2022-12-24T07:32:47;17.08;;;4.25;;
63046;SDS011;62025;39.238;9.126;2022-12-24T07:35:13;15.20;;;4.38;;
63046;SDS011;62025;39.238;9.126;2022-12-24T07:37:39;20.05;;;4.68;;
63046;SDS011;62025;39.238;9.126;2022-12-24T07:40:05;12.85;;;4.00;;
63046;SDS011;62025;39.238;9.126;2022-12-24T07:42:33;14.30;;;4.22;;
63046;SDS011;62025;39.238;9.126;2022-12-24T07:44:59;18.35;;;3.80;;
63046;SDS011;62025;39.238;9.126;2022-12-24T07:47:25;16.02;;;4.00;;
63046;SDS011;62025;39.238;9.126;2022-12-24T07:49:51;17.27;;;4.03;;
63046;SDS011;62025;39.238;9.126;2022-12-24T07:52:17;18.67;;;4.45;;
63046;SDS011;62025;39.238;9.126;2022-12-24T07:54:43;16.42;;;3.47;;
63046;SDS011;62025;39.238;9.126;2022-12-24T07:57:09;18.23;;;4.82;;
63046;SDS011;62025;39.238;9.126;2022-12-24T07:59:35;12.27;;;4.30;;
63046;SDS011;62025;39.238;9.126;2022-12-24T08:02:02;14.48;;;4.53;;
63046;SDS011;62025;39.238;9.126;2022-12-24T08:04:30;17.42;;;4.32;;
63046;SDS011;62025;39.238;9.126;2022-12-24T08:09:23;15.88;;;4.47;;
63046;SDS011;62025;39.238;9.126;2022-12-24T08:11:49;13.82;;;3.85;;
63046;SDS011;62025;39.238;9.126;2022-12-24T08:14:15;16.48;;;4.47;;
63046;SDS011;62025;39.238;9.126;2022-12-24T08:16:41;13.50;;;4.18;;
63046;SDS011;62025;39.238;9.126;2022-12-24T08:19:07;17.38;;;4.07;;
63046;SDS011;62025;39.238;9.126;2022-12-24T08:21:33;14.30;;;4.25;;
63046;SDS011;62025;39.238;9.126;2022-12-24T08:23:59;24.50;;;4.95;;
63046;SDS011;62025;39.238;9.126;2022-12-24T08:26:24;13.00;;;4.07;;
63046;SDS011;62025;39.238;9.126;2022-12-24T08:28:50;17.17;;;5.00;;
63046;SDS011;62025;39.238;9.126;2022-12-24T08:31:16;13.60;;;4.00;;
63046;SDS011;62025;39.238;9.126;2022-12-24T08:33:42;16.40;;;4.45;;
63046;SDS011;62025;39.238;9.126;2022-12-24T08:36:08;15.50;;;4.00;;
63046;SDS011;62025;39.238;9.126;2022-12-24T08:38:34;14.32;;;3.88;;
63046;SDS011;62025;39.238;9.126;2022-12-24T08:41:00;13.38;;;3.70;;
63046;SDS011;62025;39.238;9.126;2022-12-24T08:43:26;12.82;;;3.58;;
63046;SDS011;62025;39.238;9.126;2022-12-24T08:45:52;15.20;;;3.85;;
63046;SDS011;62025;39.238;9.126;2022-12-24T08:48:18;17.33;;;4.03;;
63046;SDS011;62025;39.238;9.126;2022-12-24T08:50:44;11.05;;;3.40;;
63046;SDS011;62025;39.238;9.126;2022-12-24T08:53:10;13.38;;;3.72;;
63046;SDS011;62025;39.238;9.126;2022-12-24T08:55:37;12.85;;;4.00;;
63046;SDS011;62025;39.238;9.126;2022-12-24T08:58:03;13.73;;;3.75;;
63046;SDS011;62025;39.238;9.126;2022-12-24T09:00:29;17.55;;;4.18;;
63046;SDS011;62025;39.238;9.126;2022-12-24T09:02:56;14.32;;;4.78;;
63046;SDS011;62025;39.238;9.126;2022-12-24T09:05:22;18.23;;;4.57;;
63046;SDS011;62025;39.238;9.126;2022-12-24T09:07:48;15.82;;;4.47;;
63046;SDS011;62025;39.238;9.126;2022-12-24T09:10:14;16.48;;;4.00;;
63046;SDS011;62025;39.238;9.126;2022-12-24T09:12:41;14.70;;;4.18;;
63046;SDS011;62025;39.238;9.126;2022-12-24T09:15:08;13.57;;;4.82;;
63046;SDS011;62025;39.238;9.126;2022-12-24T09:17:34;14.50;;;4.00;;
63046;SDS011;62025;39.238;9.126;2022-12-24T09:20:02;16.48;;;4.72;;
63046;SDS011;62025;39.238;9.126;2022-12-24T09:22:32;16.60;;;4.55;;
63046;SDS011;62025;39.238;9.126;2022-12-24T09:25:01;17.75;;;4.70;;
63046;SDS011;62025;39.238;9.126;2022-12-24T09:27:29;17.50;;;4.97;;
63046;SDS011;62025;39.238;9.126;2022-12-24T09:29:55;19.27;;;5.05;;
63046;SDS011;62025;39.238;9.126;2022-12-24T09:32:21;14.55;;;4.95;;
63046;SDS011;62025;39.238;9.126;2022-12-24T09:34:47;13.82;;;4.75;;
63046;SDS011;62025;39.238;9.126;2022-12-24T09:37:13;17.42;;;6.10;;
63046;SDS011;62025;39.238;9.126;2022-12-24T09:39:39;15.27;;;4.50;;
63046;SDS011;62025;39.238;9.126;2022-12-24T09:45:18;16.27;;;5.07;;
63046;SDS011;62025;39.238;9.126;2022-12-24T09:47:58;19.35;;;4.53;;
63046;SDS011;62025;39.238;9.126;2022-12-24T09:50:56;15.80;;;4.80;;
63046;SDS011;62025;39.238;9.126;2022-12-24T09:53:42;13.98;;;4.35;;
63046;SDS011;62025;39.238;9.126;2022-12-24T09:56:18;16.00;;;4.15;;
63046;SDS011;62025;39.238;9.126;2022-12-24T09:58:56;15.65;;;5.15;;
63046;SDS011;62025;39.238;9.126;2022-12-24T10:01:27;12.38;;;3.92;;
63046;SDS011;62025;39.238;9.126;2022-12-24T10:04:00;13.55;;;4.15;;
63046;SDS011;62025;39.238;9.126;2022-12-24T10:10:02;10.82;;;3.35;;
63046;SDS011;62025;39.238;9.126;2022-12-24T10:16:23;13.13;;;3.33;;
63046;SDS011;62025;39.238;9.126;2022-12-24T10:18:58;13.68;;;3.60;;
63046;SDS011;62025;39.238;9.126;2022-12-24T10:25:08;11.60;;;3.40;;
63046;SDS011;62025;39.238;9.126;2022-12-24T10:30:27;11.82;;;3.40;;
63046;SDS011;62025;39.238;9.126;2022-12-24T10:32:54;15.35;;;4.15;;
63046;SDS011;62025;39.238;9.126;2022-12-24T10:37:49;14.15;;;4.18;;
63046;SDS011;62025;39.238;9.126;2022-12-24T10:40:23;12.50;;;5.40;;
63046;SDS011;62025;39.238;9.126;2022-12-24T10:42:52;11.55;;;4.60;;
63046;SDS011;62025;39.238;9.126;2022-12-24T10:45:21;15.07;;;4.03;;
63046;SDS011;62025;39.238;9.126;2022-12-24T10:47:54;11.75;;;3.83;;
63046;SDS011;62025;39.238;9.126;2022-12-24T10:50:31;12.65;;;4.03;;
63046;SDS011;62025;39.238;9.126;2022-12-24T10:56:04;13.35;;;4.53;;
63046;SDS011;62025;39.238;9.126;2022-12-24T10:58:32;14.65;;;3.92;;
63046;SDS011;62025;39.238;9.126;2022-12-24T11:00:59;13.70;;;3.47;;
63046;SDS011;62025;39.238;9.126;2022-12-24T11:06:03;12.30;;;3.50;;
63046;SDS011;62025;39.238;9.126;2022-12-24T11:08:33;12.48;;;3.75;;
63046;SDS011;62025;39.238;9.126;2022-12-24T11:11:02;13.70;;;3.35;;
63046;SDS011;62025;39.238;9.126;2022-12-24T11:13:37;15.20;;;5.03;;
63046;SDS011;62025;39.238;9.126;2022-12-24T11:16:26;11.35;;;3.83;;
63046;SDS011;62025;39.238;9.126;2022-12-24T11:18:57;12.52;;;3.90;;
63046;SDS011;62025;39.238;9.126;2022-12-24T11:21:27;11.30;;;3.55;;
63046;SDS011;62025;39.238;9.126;2022-12-24T11:23:57;13.00;;;4.13;;
63046;SDS011;62025;39.238;9.126;2022-12-24T11:26:51;13.85;;;3.80;;
63046;SDS011;62025;39.238;9.126;2022-12-24T11:29:21;19.45;;;4.35;;
63046;SDS011;62025;39.238;9.126;2022-12-24T11:32:09;11.55;;;4.18;;
63046;SDS011;62025;39.238;9.126;2022-12-24T11:34:46;11.68;;;3.67;;
63046;SDS011;62025;39.238;9.126;2022-12-24T11:37:30;14.40;;;3.92;;
63046;SDS011;62025;39.238;9.126;2022-12-24T11:39:57;16.48;;;4.75;;
63046;SDS011;62025;39.238;9.126;2022-12-24T11:42:30;15.73;;;3.58;;
63046;SDS011;62025;39.238;9.126;2022-12-24T11:45:04;14.60;;;5.13;;
63046;SDS011;62025;39.238;9.126;2022-12-24T11:53:02;19.35;;;4.50;;
63046;SDS011;62025;39.238;9.126;2022-12-24T11:58:36;12.75;;;4.03;;
63046;SDS011;62025;39.238;9.126;2022-12-24T12:02:24;13.18;;;3.30;;
63046;SDS011;62025;39.238;9.126;2022-12-24T12:04:56;17.20;;;4.70;;
63046;SDS011;62025;39.238;9.126;2022-12-24T12:07:32;10.27;;;4.10;;
63046;SDS011;62025;39.238;9.126;2022-12-24T12:13:07;14.73;;;4.65;;
63046;SDS011;62025;39.238;9.126;2022-12-24T12:18:18;10.40;;;3.72;;
63046;SDS011;62025;39.238;9.126;2022-12-24T12:21:18;16.65;;;4.15;;
63046;SDS011;62025;39.238;9.126;2022-12-24T12:23:50;17.40;;;4.90;;
63046;SDS011;62025;39.238;9.126;2022-12-24T12:28:57;12.27;;;3.65;;
63046;SDS011;62025;39.238;9.126;2022-12-24T12:31:47;13.32;;;4.10;;
63046;SDS011;62025;39.238;9.126;2022-12-24T12:34:21;12.50;;;4.20;;
63046;SDS011;62025;39.238;9.126;2022-12-24T12:40:10;16.20;;;4.80;;
63046;SDS011;62025;39.238;9.126;2022-12-24T12:42:52;12.32;;;4.03;;
63046;SDS011;62025;39.238;9.126;2022-12-24T12:45:42;8.25;;;3.58;;
63046;SDS011;62025;39.238;9.126;2022-12-24T12:54:20;11.95;;;3.90;;
63046;SDS011;62025;39.238;9.126;2022-12-24T12:57:10;13.07;;;4.10;;
63046;SDS011;62025;39.238;9.126;2022-12-24T13:22:03;14.02;;;4.20;;
63046;SDS011;62025;39.238;9.126;2022-12-24T13:24:30;12.65;;;4.20;;
63046;SDS011;62025;39.238;9.126;2022-12-24T13:27:10;11.07;;;3.83;;
63046;SDS011;62025;39.238;9.126;2022-12-24T13:58:45;15.45;;;5.45;;
63046;SDS011;62025;39.238;9.126;2022-12-24T14:01:19;14.30;;;4.35;;
63046;SDS011;62025;39.238;9.126;2022-12-24T14:03:58;13.20;;;4.55;;
63046;SDS011;62025;39.238;9.126;2022-12-24T14:06:34;8.70;;;3.60;;
63046;SDS011;62025;39.238;9.126;2022-12-24T14:09:17;11.20;;;4.50;;
63046;SDS011;62025;39.238;9.126;2022-12-24T14:14:28;17.52;;;4.90;;
63046;SDS011;62025;39.238;9.126;2022-12-24T14:17:02;13.90;;;4.85;;
63046;SDS011;62025;39.238;9.126;2022-12-24T14:19:45;9.65;;;4.63;;
63046;SDS011;62025;39.238;9.126;2022-12-24T14:25:18;11.60;;;4.65;;
63046;SDS011;62025;39.238;9.126;2022-12-24T14:27:58;16.50;;;4.85;;
63046;SDS011;62025;39.238;9.126;2022-12-24T14:30:41;11.32;;;5.70;;
63046;SDS011;62025;39.238;9.126;2022-12-24T14:33:26;16.17;;;6.18;;
63046;SDS011;62025;39.238;9.126;2022-12-24T14:35:54;14.70;;;5.68;;
63046;SDS011;62025;39.238;9.126;2022-12-24T14:38:20;13.80;;;5.25;;
63046;SDS011;62025;39.238;9.126;2022-12-24T14:40:49;8.90;;;4.65;;
63046;SDS011;62025;39.238;9.126;2022-12-24T14:46:37;14.25;;;5.32;;
63046;SDS011;62025;39.238;9.126;2022-12-24T14:54:35;15.65;;;7.45;;
63046;SDS011;62025;39.238;9.126;2022-12-24T14:59:41;18.98;;;9.98;;
63046;SDS011;62025;39.238;9.126;2022-12-24T15:02:49;16.92;;;5.97;;
63046;SDS011;62025;39.238;9.126;2022-12-24T15:07:46;14.20;;;5.63;;
63046;SDS011;62025;39.238;9.126;2022-12-24T15:12:57;15.63;;;6.53;;
63046;SDS011;62025;39.238;9.126;2022-12-24T15:15:29;15.18;;;6.30;;
63046;SDS011;62025;39.238;9.126;2022-12-24T15:17:55;13.98;;;6.32;;
63046;SDS011;62025;39.238;9.126;2022-12-24T15:20:24;15.15;;;6.53;;
63046;SDS011;62025;39.238;9.126;2022-12-24T15:22:53;19.45;;;6.25;;
63046;SDS011;62025;39.238;9.126;2022-12-24T15:25:23;17.05;;;7.55;;
63046;SDS011;62025;39.238;9.126;2022-12-24T15:27:53;16.15;;;7.28;;
63046;SDS011;62025;39.238;9.126;2022-12-24T15:30:21;18.85;;;8.25;;
63046;SDS011;62025;39.238;9.126;2022-12-24T15:32:51;21.05;;;9.13;;
63046;SDS011;62025;39.238;9.126;2022-12-24T15:40:54;15.77;;;7.95;;
63046;SDS011;62025;39.238;9.126;2022-12-24T15:43:21;18.40;;;9.07;;
63046;SDS011;62025;39.238;9.126;2022-12-24T15:45:48;16.50;;;6.97;;
63046;SDS011;62025;39.238;9.126;2022-12-24T15:48:33;22.27;;;7.97;;
63046;SDS011;62025;39.238;9.126;2022-12-24T15:51:02;19.88;;;8.05;;
63046;SDS011;62025;39.238;9.126;2022-12-24T15:58:51;18.85;;;9.18;;
63046;SDS011;62025;39.238;9.126;2022-12-24T16:01:44;19.02;;;8.32;;
63046;SDS011;62025;39.238;9.126;2022-12-24T16:04:15;17.83;;;8.32;;
63046;SDS011;62025;39.238;9.126;2022-12-24T16:06:59;19.00;;;9.35;;
63046;SDS011;62025;39.238;9.126;2022-12-24T16:09:30;19.58;;;9.73;;
63046;SDS011;62025;39.238;9.126;2022-12-24T16:12:12;23.92;;;9.30;;
63046;SDS011;62025;39.238;9.126;2022-12-24T16:14:44;19.75;;;8.40;;
63046;SDS011;62025;39.238;9.126;2022-12-24T16:17:22;19.02;;;9.07;;
63046;SDS011;62025;39.238;9.126;2022-12-24T16:19:52;18.63;;;8.80;;
63046;SDS011;62025;39.238;9.126;2022-12-24T16:22:23;22.13;;;10.68;;
63046;SDS011;62025;39.238;9.126;2022-12-24T16:25:14;25.25;;;11.32;;
63046;SDS011;62025;39.238;9.126;2022-12-24T16:27:51;19.48;;;10.27;;
63046;SDS011;62025;39.238;9.126;2022-12-24T16:30:17;17.08;;;8.32;;
63046;SDS011;62025;39.238;9.126;2022-12-24T16:32:45;22.33;;;10.50;;
63046;SDS011;62025;39.238;9.126;2022-12-24T16:35:45;25.05;;;12.13;;
63046;SDS011;62025;39.238;9.126;2022-12-24T16:38:04;18.60;;;9.18;;
63046;SDS011;62025;39.238;9.126;2022-12-24T16:40:30;18.65;;;8.77;;
63046;SDS011;62025;39.238;9.126;2022-12-24T16:42:56;18.27;;;8.32;;
63046;SDS011;62025;39.238;9.126;2022-12-24T16:45:41;18.17;;;8.05;;
63046;SDS011;62025;39.238;9.126;2022-12-24T16:48:10;17.88;;;7.88;;
63046;SDS011;62025;39.238;9.126;2022-12-24T16:50:49;19.95;;;9.77;;
63046;SDS011;62025;39.238;9.126;2022-12-24T16:53:17;23.98;;;11.55;;
63046;SDS011;62025;39.238;9.126;2022-12-24T16:55:45;17.42;;;8.60;;
63046;SDS011;62025;39.238;9.126;2022-12-24T16:58:13;21.30;;;8.20;;
63046;SDS011;62025;39.238;9.126;2022-12-24T17:00:41;14.93;;;7.72;;
63046;SDS011;62025;39.238;9.126;2022-12-24T17:03:08;15.73;;;7.40;;
63046;SDS011;62025;39.238;9.126;2022-12-24T17:05:41;17.13;;;7.55;;
63046;SDS011;62025;39.238;9.126;2022-12-24T17:08:09;15.57;;;7.35;;
63046;SDS011;62025;39.238;9.126;2022-12-24T17:10:35;15.52;;;7.30;;
63046;SDS011;62025;39.238;9.126;2022-12-24T17:13:01;15.68;;;7.88;;
63046;SDS011;62025;39.238;9.126;2022-12-24T17:15:28;17.38;;;7.88;;
63046;SDS011;62025;39.238;9.126;2022-12-24T17:17:54;15.52;;;8.07;;
63046;SDS011;62025;39.238;9.126;2022-12-24T17:20:20;17.02;;;8.50;;
63046;SDS011;62025;39.238;9.126;2022-12-24T17:22:47;12.68;;;7.03;;
63046;SDS011;62025;39.238;9.126;2022-12-24T17:25:14;13.85;;;6.78;;
63046;SDS011;62025;39.238;9.126;2022-12-24T17:27:41;12.70;;;6.55;;
63046;SDS011;62025;39.238;9.126;2022-12-24T17:30:07;13.50;;;7.10;;
63046;SDS011;62025;39.238;9.126;2022-12-24T17:32:34;19.80;;;7.38;;
63046;SDS011;62025;39.238;9.126;2022-12-24T17:35:01;15.27;;;7.45;;
63046;SDS011;62025;39.238;9.126;2022-12-24T17:37:28;12.93;;;7.30;;